createdAt,value
2023-04-01T00:00:29.657Z,60.36
2023-04-01T00:02:57.659Z,60.45
2023-04-01T00:05:39.741Z,60.10
2023-04-01T00:08:07.145Z,60.69
2023-04-01T00:10:34.090Z,60.35
2023-04-01T00:13:01.685Z,60.29
2023-04-01T00:15:28.580Z,60.45
2023-04-01T00:17:56.106Z,60.32
2023-04-01T00:20:31.991Z,60.84
2023-04-01T00:22:59.046Z,60.61
2023-04-01T00:25:26.178Z,60.47
2023-04-01T00:27:53.972Z,60.74
2023-04-01T00:30:21.176Z,60.39
2023-04-01T00:32:48.171Z,60.60
2023-04-01T00:35:15.141Z,60.19
2023-04-01T00:37:42.058Z,61.51
2023-04-01T00:40:22.802Z,61.43
2023-04-01T00:42:49.823Z,61.51
2023-04-01T00:45:41.500Z,61.41
2023-04-01T00:48:12.819Z,61.08
2023-04-01T00:50:44.342Z,61.27
2023-04-01T00:53:12.175Z,62.01
2023-04-01T00:55:45.333Z,61.52
2023-04-01T00:58:17.855Z,61.59
2023-04-01T01:00:46.602Z,61.56
2023-04-01T01:03:13.849Z,61.46
2023-04-01T01:06:09.163Z,61.00
2023-04-01T01:08:53.776Z,61.49
2023-04-01T01:11:43.249Z,61.05
2023-04-01T01:14:52.654Z,61.49
2023-04-01T01:17:39.894Z,61.48
2023-04-01T01:20:34.408Z,61.34
2023-04-01T01:23:10.647Z,61.91
2023-04-01T01:25:56.825Z,61.35
2023-04-01T01:28:57.053Z,61.53
2023-04-01T01:31:32.085Z,61.04
2023-04-01T01:33:58.958Z,61.12
2023-04-01T01:36:29.761Z,61.20
2023-04-01T01:38:58.760Z,60.88
2023-04-01T01:41:28.123Z,61.44
2023-04-01T01:43:59.864Z,61.27
2023-04-01T01:46:30.407Z,61.20
2023-04-01T01:49:00.547Z,61.31
2023-04-01T01:51:29.148Z,60.92
2023-04-01T01:53:56.255Z,61.57
2023-04-01T01:56:29.022Z,60.95
2023-04-01T01:59:04.599Z,60.94
2023-04-01T02:01:36.970Z,60.86
2023-04-01T02:04:14.325Z,61.37
2023-04-01T02:06:48.308Z,61.15
2023-04-01T02:09:15.970Z,61.07
2023-04-01T02:11:53.355Z,61.36
2023-04-01T02:14:36.108Z,61.42
2023-04-01T02:17:08.096Z,60.93
2023-04-01T02:19:44.245Z,61.58
2023-04-01T02:22:17.594Z,60.89
2023-04-01T02:24:46.521Z,60.71
2023-04-01T02:27:13.977Z,61.58
2023-04-01T02:29:41.180Z,60.80
2023-04-01T02:32:10.448Z,60.42
2023-04-01T02:34:38.198Z,60.65
2023-04-01T02:37:05.497Z,61.04
2023-04-01T02:39:32.617Z,60.93
2023-04-01T02:41:59.686Z,61.30
2023-04-01T02:44:26.753Z,60.67
2023-04-01T02:46:54.115Z,61.00
2023-04-01T02:49:21.201Z,60.78
2023-04-01T02:51:48.213Z,60.64
2023-04-01T02:54:15.816Z,60.00
2023-04-01T02:56:43.840Z,59.95
2023-04-01T02:59:10.944Z,59.95
2023-04-01T03:01:38.009Z,59.82
2023-04-01T03:04:05.578Z,59.83
2023-04-01T03:06:32.545Z,59.97
2023-04-01T03:08:59.445Z,59.71
2023-04-01T03:11:27.416Z,59.76
2023-04-01T03:13:54.681Z,59.72
2023-04-01T03:16:21.686Z,59.54
2023-04-01T03:18:51.765Z,59.71
2023-04-01T03:21:21.828Z,60.49
2023-04-01T03:23:49.007Z,59.76
2023-04-01T03:26:16.622Z,60.22
2023-04-01T03:28:44.455Z,60.28
2023-04-01T03:31:11.820Z,60.38
2023-04-01T03:33:45.562Z,60.78
2023-04-01T03:36:13.938Z,60.81
2023-04-01T03:38:45.698Z,60.29
2023-04-01T03:41:17.421Z,60.39
2023-04-01T03:43:45.181Z,61.00
2023-04-01T03:46:12.622Z,60.65
2023-04-01T03:48:39.766Z,60.92
2023-04-01T03:51:09.952Z,60.34
2023-04-01T03:53:37.253Z,60.37
2023-04-01T03:56:10.222Z,60.38
2023-04-01T03:58:37.750Z,60.81
2023-04-01T04:01:26.295Z,60.51
2023-04-01T04:03:57.358Z,60.71
2023-04-01T04:06:25.175Z,60.93
2023-04-01T04:08:53.111Z,61.29
2023-04-01T04:11:22.108Z,61.21
2023-04-01T04:13:53.321Z,60.87
2023-04-01T04:16:20.982Z,60.33
2023-04-01T04:18:55.036Z,60.22
2023-04-01T04:21:21.977Z,60.12
2023-04-01T04:23:48.932Z,60.58
2023-04-01T04:26:18.621Z,61.22
2023-04-01T04:28:54.683Z,62.55
2023-04-01T04:31:25.602Z,62.72
2023-04-01T04:33:55.436Z,63.51
2023-04-01T04:36:23.043Z,63.22
2023-04-01T04:38:51.662Z,62.80
2023-04-01T04:41:20.470Z,62.99
2023-04-01T04:43:55.383Z,63.46
2023-04-01T04:46:24.959Z,63.20
2023-04-01T04:48:58.413Z,62.41
2023-04-01T04:51:26.448Z,61.64
2023-04-01T04:53:53.457Z,61.59
2023-04-01T04:56:29.877Z,61.38
2023-04-01T04:59:08.627Z,61.46
2023-04-01T05:01:58.815Z,61.51
2023-04-01T05:04:25.783Z,62.05
2023-04-01T05:06:52.884Z,61.98
2023-04-01T05:09:20.028Z,62.03
2023-04-01T05:11:46.902Z,61.89
2023-04-01T05:14:16.091Z,62.16
2023-04-01T05:16:46.808Z,61.60
2023-04-01T05:19:14.286Z,61.74
2023-04-01T05:21:41.149Z,61.15
2023-04-01T05:24:11.725Z,60.74
2023-04-01T05:26:39.654Z,60.71
2023-04-01T05:29:06.803Z,60.77
2023-04-01T05:31:34.112Z,60.88
2023-04-01T05:34:01.655Z,60.36
2023-04-01T05:36:28.784Z,60.59
2023-04-01T05:38:57.549Z,60.23
2023-04-01T05:41:26.806Z,60.71
2023-04-01T05:43:53.711Z,60.88
2023-04-01T05:46:39.114Z,60.82
2023-04-01T05:49:35.214Z,60.96
2023-04-01T05:52:03.950Z,60.72
2023-04-01T05:54:32.205Z,60.27
2023-04-01T05:56:59.204Z,60.81
2023-04-01T05:59:26.303Z,60.49
2023-04-01T06:01:54.026Z,60.87
2023-04-01T06:04:21.344Z,60.83
2023-04-01T06:06:48.302Z,60.32
2023-04-01T06:09:20.601Z,60.06
2023-04-01T06:12:14.259Z,57.99
2023-04-01T06:15:01.182Z,55.24
2023-04-01T06:17:57.065Z,55.12
2023-04-01T06:20:38.445Z,55.83
2023-04-01T06:23:35.905Z,53.80
2023-04-01T06:26:25.819Z,53.61
2023-04-01T06:29:27.255Z,51.51
2023-04-01T06:32:13.796Z,50.57
2023-04-01T06:34:59.852Z,51.48
2023-04-01T06:37:48.469Z,51.21
2023-04-01T06:40:22.824Z,52.67
2023-04-01T06:43:10.970Z,52.19
2023-04-01T06:46:18.848Z,52.14
2023-04-01T06:49:14.293Z,51.54
2023-04-01T06:52:35.296Z,49.71
2023-04-01T06:55:51.179Z,49.96
2023-04-01T06:58:42.921Z,51.06
2023-04-01T07:02:00.699Z,50.30
2023-04-01T07:04:32.834Z,50.90
2023-04-01T07:07:21.602Z,49.46
2023-04-01T07:10:00.424Z,49.72
2023-04-01T07:12:34.985Z,49.20
2023-04-01T07:15:22.231Z,49.27
2023-04-01T07:18:13.293Z,48.06
2023-04-01T07:20:40.944Z,48.49
2023-04-01T07:23:18.083Z,47.88
2023-04-01T07:26:01.557Z,47.16
2023-04-01T07:28:35.284Z,46.85
2023-04-01T07:31:26.526Z,47.46
2023-04-01T07:34:21.853Z,46.05
2023-04-01T07:37:03.801Z,46.84
2023-04-01T07:39:37.124Z,47.34
2023-04-01T07:42:38.747Z,46.05
2023-04-01T07:45:28.011Z,46.37
2023-04-01T07:48:26.499Z,45.33
2023-04-01T07:50:58.320Z,45.71
2023-04-01T07:53:31.351Z,46.17
2023-04-01T07:56:13.293Z,46.11
2023-04-01T07:58:56.975Z,46.11
2023-04-01T08:02:02.673Z,46.50
2023-04-01T08:04:36.366Z,45.46
2023-04-01T08:07:27.532Z,45.68
2023-04-01T08:10:24.572Z,46.19
2023-04-01T08:13:22.207Z,46.32
2023-04-01T08:16:33.222Z,45.94
2023-04-01T08:19:43.413Z,45.34
2023-04-01T08:22:30.418Z,46.09
2023-04-01T08:25:05.305Z,46.40
2023-04-01T08:27:54.766Z,45.15
2023-04-01T08:30:27.191Z,45.84
2023-04-01T08:33:06.267Z,44.84
2023-04-01T08:35:42.803Z,45.32
2023-04-01T08:38:19.564Z,44.97
2023-04-01T08:41:14.687Z,43.54
2023-04-01T08:45:05.087Z,44.14
2023-04-01T08:47:56.485Z,43.79
2023-04-01T08:50:35.849Z,44.05
2023-04-01T08:53:12.645Z,44.48
2023-04-01T08:56:21.806Z,44.09
2023-04-01T08:59:15.644Z,43.17
2023-04-01T09:02:11.479Z,42.74
2023-04-01T09:05:04.459Z,43.67
2023-04-01T09:08:02.770Z,43.36
2023-04-01T09:10:29.943Z,44.06
2023-04-01T09:13:38.687Z,42.66
2023-04-01T09:16:24.433Z,42.95
2023-04-01T09:19:32.638Z,42.30
2023-04-01T09:22:22.572Z,42.19
2023-04-01T09:25:24.301Z,43.00
2023-04-01T09:28:29.758Z,41.68
2023-04-01T09:31:00.167Z,41.79
2023-04-01T09:33:49.141Z,41.20
2023-04-01T09:36:28.207Z,40.70
2023-04-01T09:38:55.422Z,40.84
2023-04-01T09:41:55.585Z,40.34
2023-04-01T09:45:20.146Z,40.21
2023-04-01T09:48:14.242Z,40.35
2023-04-01T09:50:41.477Z,39.57
2023-04-01T09:53:26.836Z,37.68
2023-04-01T09:56:32.968Z,37.32
2023-04-01T09:59:21.804Z,37.64
2023-04-01T10:02:58.295Z,35.81
2023-04-01T10:05:43.061Z,35.45
2023-04-01T10:08:20.327Z,34.15
2023-04-01T10:11:11.616Z,31.39
2023-04-01T10:13:57.658Z,29.52
2023-04-01T10:16:46.964Z,27.41
2023-04-01T10:19:32.031Z,26.17
2023-04-01T10:22:18.006Z,26.70
2023-04-01T10:24:49.638Z,25.41
2023-04-01T10:27:35.102Z,23.82
2023-04-01T10:30:07.461Z,23.75
2023-04-01T10:32:47.115Z,21.79
2023-04-01T10:35:39.213Z,22.30
2023-04-01T10:38:18.035Z,22.19
2023-04-01T10:41:04.199Z,22.88
2023-04-01T10:43:52.941Z,22.46
2023-04-01T10:46:38.401Z,21.85
2023-04-01T10:49:29.539Z,22.58
2023-04-01T10:52:06.317Z,23.11
2023-04-01T10:55:16.681Z,23.77
2023-04-01T10:58:21.659Z,24.15
2023-04-01T11:01:28.756Z,24.19
2023-04-01T11:04:32.709Z,25.58
2023-04-01T11:07:31.452Z,25.03
2023-04-01T11:10:16.467Z,26.29
2023-04-01T11:13:07.754Z,26.97
2023-04-01T11:16:11.979Z,25.64
2023-04-01T11:19:06.093Z,25.57
2023-04-01T11:21:39.015Z,25.71
2023-04-01T11:24:43.313Z,25.44
2023-04-01T11:28:07.259Z,26.36
2023-04-01T11:30:43.608Z,26.05
2023-04-01T11:33:22.101Z,26.65
2023-04-01T11:36:11.620Z,26.67
2023-04-01T11:39:04.498Z,26.71
2023-04-01T11:42:18.929Z,27.10
2023-04-01T11:45:30.143Z,28.47
2023-04-01T11:48:28.711Z,31.50
2023-04-01T11:51:21.086Z,33.71
2023-04-01T11:54:18.461Z,33.30
2023-04-01T11:57:18.775Z,32.65
2023-04-01T12:00:19.294Z,32.07
2023-04-01T12:02:57.924Z,32.49
2023-04-01T12:05:51.274Z,32.73
2023-04-01T12:08:42.888Z,34.72
2023-04-01T12:11:37.935Z,35.52
2023-04-01T12:14:31.972Z,34.27
2023-04-01T12:17:10.744Z,34.18
2023-04-01T12:19:54.874Z,33.86
2023-04-01T12:22:36.448Z,33.30
2023-04-01T12:25:18.548Z,33.05
2023-04-01T12:27:59.953Z,33.89
2023-04-01T12:30:32.771Z,33.56
2023-04-01T12:33:24.400Z,34.81
2023-04-01T12:36:33.150Z,35.04
2023-04-01T12:39:37.790Z,35.48
2023-04-01T12:42:30.215Z,38.29
2023-04-01T12:45:18.567Z,38.93
2023-04-01T12:48:12.006Z,38.66
2023-04-01T12:51:03.948Z,39.06
2023-04-01T12:53:58.856Z,39.38
2023-04-01T12:56:44.372Z,39.88
2023-04-01T12:59:48.172Z,40.63
2023-04-01T13:02:30.710Z,40.33
2023-04-01T13:04:58.798Z,39.60
2023-04-01T13:07:46.587Z,39.50
2023-04-01T13:10:38.475Z,38.79
2023-04-01T13:13:05.496Z,38.51
2023-04-01T13:15:44.801Z,39.08
2023-04-01T13:18:23.962Z,37.95
2023-04-01T13:21:07.413Z,37.85
2023-04-01T13:23:50.035Z,38.42
2023-04-01T13:26:35.825Z,38.54
2023-04-01T13:29:15.446Z,37.33
2023-04-01T13:32:17.981Z,37.44
2023-04-01T13:35:09.802Z,36.67
2023-04-01T13:37:44.464Z,36.13
2023-04-01T13:41:02.346Z,35.72
2023-04-01T13:43:40.939Z,35.00
2023-04-01T13:46:36.292Z,33.78
2023-04-01T13:49:13.241Z,32.51
2023-04-01T13:51:40.343Z,34.93
2023-04-01T13:54:22.183Z,35.19
2023-04-01T13:57:15.799Z,34.21
2023-04-01T14:00:07.514Z,35.20
2023-04-01T14:03:14.722Z,34.19
2023-04-01T14:06:00.616Z,34.73
2023-04-01T14:09:09.278Z,34.19
2023-04-01T14:12:07.536Z,43.44
2023-04-01T14:14:40.736Z,46.28
2023-04-01T14:17:25.600Z,46.64
2023-04-01T14:19:52.395Z,47.36
2023-04-01T14:22:45.211Z,48.42
2023-04-01T14:25:50.033Z,48.02
2023-04-01T14:28:43.017Z,49.58
2023-04-01T14:31:35.649Z,50.80
2023-04-01T14:34:05.910Z,50.73
2023-04-01T14:36:58.346Z,50.20
2023-04-01T14:39:37.395Z,50.35
2023-04-01T14:42:28.517Z,50.30
2023-04-01T14:45:03.176Z,49.71
2023-04-01T14:47:43.297Z,49.96
2023-04-01T14:50:41.724Z,50.20
2023-04-01T14:53:08.547Z,50.24
2023-04-01T14:55:44.604Z,50.80
2023-04-01T14:58:20.691Z,49.76
2023-04-01T15:00:50.397Z,49.63
2023-04-01T15:03:35.023Z,49.44
2023-04-01T15:06:26.939Z,49.53
2023-04-01T15:09:08.915Z,49.60
2023-04-01T15:12:01.759Z,48.68
2023-04-01T15:14:28.568Z,47.10
2023-04-01T15:17:15.624Z,46.15
2023-04-01T15:20:03.439Z,46.13
2023-04-01T15:22:59.510Z,46.88
2023-04-01T15:25:37.125Z,46.18
2023-04-01T15:28:12.267Z,46.58
2023-04-01T15:31:06.155Z,46.99
2023-04-01T15:34:10.131Z,46.57
2023-04-01T15:36:56.055Z,46.69
2023-04-01T15:39:32.295Z,47.80
2023-04-01T15:42:35.640Z,48.66
2023-04-01T15:45:27.309Z,52.25
2023-04-01T15:48:08.347Z,54.21
2023-04-01T15:51:02.239Z,55.12
2023-04-01T15:53:45.979Z,55.83
2023-04-01T15:56:42.456Z,56.22
2023-04-01T15:59:15.812Z,56.29
2023-04-01T16:02:03.990Z,56.72
2023-04-01T16:04:46.482Z,56.94
2023-04-01T16:07:22.596Z,56.91
2023-04-01T16:10:19.166Z,55.96
2023-04-01T16:13:01.074Z,53.95
2023-04-01T16:15:38.711Z,53.45
2023-04-01T16:18:23.394Z,52.89
2023-04-01T16:21:06.103Z,53.29
2023-04-01T16:23:44.802Z,53.94
2023-04-01T16:26:38.211Z,52.81
2023-04-01T16:29:39.560Z,53.69
2023-04-01T16:32:38.213Z,54.15
2023-04-01T16:35:42.754Z,53.80
2023-04-01T16:38:32.221Z,53.75
2023-04-01T16:41:20.350Z,54.37
2023-04-01T16:43:58.248Z,53.00
2023-04-01T16:46:40.431Z,51.26
2023-04-01T16:49:13.058Z,50.60
2023-04-01T16:51:52.735Z,50.27
2023-04-01T16:54:22.694Z,50.57
2023-04-01T16:56:55.526Z,51.36
2023-04-01T16:59:32.642Z,51.32
2023-04-01T17:02:14.651Z,51.79
2023-04-01T17:04:46.029Z,53.86
2023-04-01T17:07:40.277Z,54.18
2023-04-01T17:10:52.163Z,54.69
2023-04-01T17:13:34.072Z,54.52
2023-04-01T17:16:06.811Z,52.83
2023-04-01T17:18:42.703Z,48.62
2023-04-01T17:21:24.214Z,42.44
2023-04-01T17:24:10.924Z,32.18
2023-04-01T17:26:47.300Z,30.67
2023-04-01T17:29:27.992Z,29.69
2023-04-01T17:32:04.041Z,29.09
2023-04-01T17:34:57.354Z,29.19
2023-04-01T17:37:34.558Z,29.66
2023-04-01T17:40:01.522Z,29.69
2023-04-01T17:42:57.024Z,27.84
2023-04-01T17:45:43.903Z,27.75
2023-04-01T17:48:25.485Z,39.44
2023-04-01T17:51:11.208Z,44.98
2023-04-01T17:54:01.140Z,48.20
2023-04-01T17:56:56.802Z,48.77
2023-04-01T17:59:37.064Z,50.32
2023-04-01T18:02:28.185Z,51.18
2023-04-01T18:05:04.363Z,52.24
2023-04-01T18:07:41.865Z,51.26
2023-04-01T18:10:24.969Z,53.60
2023-04-01T18:13:10.909Z,54.46
2023-04-01T18:16:12.363Z,54.49
2023-04-01T18:18:49.693Z,53.95
2023-04-01T18:21:32.400Z,54.20
2023-04-01T18:24:14.348Z,55.97
2023-04-01T18:26:45.229Z,58.84
2023-04-01T18:29:14.842Z,61.44
2023-04-01T18:31:47.319Z,62.30
2023-04-01T18:34:35.419Z,62.83
2023-04-01T18:37:15.530Z,64.05
2023-04-01T18:39:53.449Z,64.71
2023-04-01T18:42:51.728Z,66.21
2023-04-01T18:45:32.052Z,65.17
2023-04-01T18:48:05.092Z,65.05
2023-04-01T18:51:03.716Z,62.99
2023-04-01T18:53:55.894Z,62.65
2023-04-01T18:56:52.135Z,63.84
2023-04-01T18:59:29.539Z,63.38
2023-04-01T19:02:33.045Z,65.42
2023-04-01T19:05:18.311Z,64.96
2023-04-01T19:07:49.478Z,64.05
2023-04-01T19:10:43.104Z,62.06
2023-04-01T19:13:41.691Z,61.30
2023-04-01T19:16:37.736Z,61.02
2023-04-01T19:19:22.058Z,61.08
2023-04-01T19:21:54.781Z,60.80
2023-04-01T19:24:48.130Z,60.30
2023-04-01T19:27:32.778Z,59.33
2023-04-01T19:30:33.715Z,59.98
2023-04-01T19:33:21.938Z,59.50
2023-04-01T19:36:11.384Z,59.06
2023-04-01T19:38:41.416Z,59.06
2023-04-01T19:41:55.860Z,59.49
2023-04-01T19:44:35.190Z,59.48
2023-04-01T19:47:16.013Z,59.30
2023-04-01T19:50:09.854Z,59.87
2023-04-01T19:52:42.385Z,60.26
2023-04-01T19:55:37.628Z,60.86
2023-04-01T19:58:22.200Z,61.34
2023-04-01T20:00:58.085Z,61.69
2023-04-01T20:03:45.673Z,61.52
2023-04-01T20:06:33.722Z,61.39
2023-04-01T20:09:38.140Z,61.37
2023-04-01T20:12:15.855Z,61.46
2023-04-01T20:14:50.265Z,61.56
2023-04-01T20:17:43.107Z,60.80
2023-04-01T20:20:13.388Z,60.18
2023-04-01T20:22:46.201Z,59.16
2023-04-01T20:25:50.671Z,59.64
2023-04-01T20:28:20.940Z,59.36
2023-04-01T20:31:27.458Z,60.03
2023-04-01T20:34:15.972Z,60.31
2023-04-01T20:37:08.128Z,60.00
2023-04-01T20:39:50.576Z,59.97
2023-04-01T20:42:45.882Z,59.94
2023-04-01T20:45:18.986Z,59.88
2023-04-01T20:48:13.240Z,59.21
2023-04-01T20:50:52.439Z,58.58
2023-04-01T20:53:57.990Z,58.92
2023-04-01T20:56:56.574Z,59.53
2023-04-01T20:59:26.943Z,59.97
2023-04-01T21:02:03.329Z,60.34
2023-04-01T21:05:12.094Z,61.38
2023-04-01T21:07:47.472Z,60.79
2023-04-01T21:10:26.658Z,61.30
2023-04-01T21:13:17.665Z,61.88
2023-04-01T21:16:11.272Z,61.62
2023-04-01T21:18:59.031Z,62.70
2023-04-01T21:21:51.379Z,63.48
2023-04-01T21:24:42.369Z,62.97
2023-04-01T21:27:21.774Z,63.90
2023-04-01T21:30:27.526Z,64.05
2023-04-01T21:32:54.352Z,63.91
2023-04-01T21:35:42.881Z,63.30
2023-04-01T21:38:24.300Z,63.73
2023-04-01T21:41:16.094Z,63.55
2023-04-01T21:44:11.157Z,64.14
2023-04-01T21:46:41.104Z,63.83
2023-04-01T21:49:26.346Z,63.80
2023-04-01T21:52:20.726Z,64.41
2023-04-01T21:55:09.278Z,64.41
2023-04-01T21:58:00.417Z,63.64
2023-04-01T22:00:37.746Z,63.74
2023-04-01T22:03:19.799Z,63.09
2023-04-01T22:06:12.619Z,61.77
2023-04-01T22:09:02.348Z,62.54
2023-04-01T22:11:39.591Z,62.64
2023-04-01T22:14:43.420Z,62.64
2023-04-01T22:17:26.228Z,61.85
2023-04-01T22:20:10.405Z,60.74
2023-04-01T22:22:37.311Z,60.13
2023-04-01T22:25:23.690Z,59.78
2023-04-01T22:28:16.330Z,59.49
2023-04-01T22:30:51.345Z,59.11
2023-04-01T22:33:37.235Z,59.20
2023-04-01T22:36:35.239Z,59.94
2023-04-01T22:39:18.458Z,59.51
2023-04-01T22:42:05.530Z,59.25
2023-04-01T22:45:11.898Z,59.65
2023-04-01T22:48:26.455Z,59.44
2023-04-01T22:51:14.491Z,59.15
2023-04-01T22:53:59.830Z,59.50
2023-04-01T22:56:34.655Z,59.57
2023-04-01T22:59:11.846Z,59.75
2023-04-01T23:01:48.485Z,59.36
2023-04-01T23:04:21.704Z,59.30
2023-04-01T23:06:54.803Z,59.16
2023-04-01T23:09:30.679Z,60.44
2023-04-01T23:12:05.829Z,61.25
2023-04-01T23:14:38.299Z,61.53
2023-04-01T23:17:39.179Z,62.38
2023-04-01T23:20:22.793Z,61.12
2023-04-01T23:23:12.264Z,61.88
2023-04-01T23:26:07.286Z,61.48
2023-04-01T23:28:41.893Z,60.80
2023-04-01T23:32:01.195Z,60.80
2023-04-01T23:34:37.735Z,60.88
2023-04-01T23:37:17.186Z,62.49
2023-04-01T23:39:46.995Z,62.10
2023-04-01T23:42:20.897Z,63.12
2023-04-01T23:44:50.742Z,62.85
2023-04-01T23:47:23.091Z,62.40
2023-04-01T23:49:56.158Z,62.54
2023-04-01T23:52:26.344Z,61.96
2023-04-01T23:54:59.315Z,62.29
2023-04-01T23:57:32.137Z,62.15
